Time;durP1;ratioP1;P1;durP2;ratioP2;P2;SDS_P1;SDS_P2;PMS_P1;PMS_P2;Temp;Humidity;BMP_temperature;BMP_pressure;BME280_temperature;BME280_humidity;BME280_pressure;Samples;Min_cycle;Max_cycle;Signal;HPM_P1;HPM_P2
2021/08/12 00:02:01;;;;;;;6.75;5.43;;;;;;;20.16;100.00;98352.75;5014833;28;20030;-85
2021/08/12 00:04:26;;;;;;;9.30;5.93;;;;;;;20.06;100.00;98364.34;5014884;28;20490;-87
2021/08/12 00:06:51;;;;;;;6.65;4.85;;;;;;;19.93;100.00;98368.25;5014699;28;20018;-86
2021/08/12 00:09:17;;;;;;;7.00;5.43;;;;;;;19.88;100.00;98365.72;5014851;28;20045;-86
2021/08/12 00:11:42;;;;;;;10.32;5.80;;;;;;;19.91;100.00;98358.66;5014586;28;20062;-89
2021/08/12 00:14:09;;;;;;;8.93;5.45;;;;;;;19.95;100.00;98371.53;5013186;28;20034;-87
2021/08/12 00:16:34;;;;;;;9.20;5.07;;;;;;;19.93;100.00;98373.00;5014511;28;20473;-86
2021/08/12 00:19:01;;;;;;;8.23;5.93;;;;;;;19.82;100.00;98360.75;5014234;28;20061;-86
2021/08/12 00:21:26;;;;;;;6.22;5.00;;;;;;;19.81;100.00;98373.81;5015223;28;20034;-87
2021/08/12 00:23:52;;;;;;;6.97;5.55;;;;;;;19.87;100.00;98368.81;5013641;28;20489;-85
2021/08/12 00:26:18;;;;;;;6.03;5.20;;;;;;;19.98;100.00;98370.81;5014250;28;20025;-86
2021/08/12 00:28:44;;;;;;;6.25;5.53;;;;;;;19.83;100.00;98363.16;5014794;28;20030;-85
2021/08/12 00:31:10;;;;;;;10.18;5.93;;;;;;;19.76;100.00;98362.94;5014393;28;20022;-86
2021/08/12 00:33:35;;;;;;;9.88;6.60;;;;;;;19.83;100.00;98365.16;5013592;28;20109;-87
2021/08/12 00:36:02;;;;;;;13.93;6.15;;;;;;;19.82;100.00;98369.88;5014147;28;20022;-88
2021/08/12 00:38:27;;;;;;;9.02;5.30;;;;;;;19.85;100.00;98377.53;5013928;28;20044;-83
2021/08/12 00:40:53;;;;;;;12.52;5.90;;;;;;;19.88;100.00;98365.72;5014659;28;20026;-85
2021/08/12 00:43:20;;;;;;;9.30;5.75;;;;;;;19.98;100.00;98381.13;5014007;28;20412;-86
2021/08/12 00:45:46;;;;;;;11.95;6.88;;;;;;;19.90;100.00;98382.03;5013133;28;20073;-88
2021/08/12 00:48:12;;;;;;;7.40;5.63;;;;;;;19.78;100.00;98382.81;5014465;28;20449;-87
2021/08/12 00:50:42;;;;;;;9.50;6.40;;;;;;;19.96;100.00;98388.97;5013611;28;20030;-87
2021/08/12 00:53:08;;;;;;;8.60;5.65;;;;;;;19.93;100.00;98395.22;5013470;28;20114;-87
2021/08/12 00:55:42;;;;;;;9.65;6.13;;;;;;;20.02;100.00;98395.91;5013503;28;20104;-87
2021/08/12 00:58:07;;;;;;;10.50;6.18;;;;;;;19.90;100.00;98391.16;5014154;28;20487;-87
2021/08/12 01:00:35;;;;;;;10.68;5.70;;;;;;;20.04;100.00;98397.22;5013535;28;20029;-86
2021/08/12 01:03:02;;;;;;;6.40;4.63;;;;;;;19.89;100.00;98383.97;5013813;28;20080;-87
2021/08/12 01:05:30;;;;;;;9.13;5.72;;;;;;;19.91;100.00;98384.47;5012642;28;20026;-86
2021/08/12 01:08:10;;;;;;;6.95;5.75;;;;;;;19.69;100.00;98376.56;5013926;28;20080;-84
2021/08/12 01:10:52;;;;;;;7.35;5.72;;;;;;;19.71;100.00;98393.69;5013230;28;20094;-87
2021/08/12 01:13:46;;;;;;;8.95;5.80;;;;;;;19.57;100.00;98398.75;5014270;28;20101;-88
2021/08/12 01:16:14;;;;;;;10.13;5.40;;;;;;;19.40;100.00;98396.97;5013886;28;20088;-86
2021/08/12 01:18:48;;;;;;;6.47;5.38;;;;;;;19.44;100.00;98400.69;5013362;28;20041;-87
2021/08/12 01:21:29;;;;;;;8.73;6.55;;;;;;;19.62;100.00;98401.28;5013461;28;20025;-86
2021/08/12 01:24:00;;;;;;;8.63;4.70;;;;;;;19.47;100.00;98391.66;5013796;28;20018;-87
2021/08/12 01:26:29;;;;;;;8.80;5.07;;;;;;;19.38;100.00;98399.25;5013959;28;20022;-87
2021/08/12 01:28:56;;;;;;;8.68;5.25;;;;;;;19.39;100.00;98406.41;5013086;28;20026;-86
2021/08/12 01:31:33;;;;;;;7.65;5.38;;;;;;;19.38;100.00;98395.66;5013756;28;20029;-86
2021/08/12 01:34:11;;;;;;;8.57;5.90;;;;;;;19.32;100.00;98392.28;5014262;28;20030;-86
2021/08/12 01:36:40;;;;;;;11.00;5.90;;;;;;;19.18;100.00;98389.81;5015667;28;20113;-87
2021/08/12 01:39:07;;;;;;;7.03;5.68;;;;;;;19.21;100.00;98402.19;5019617;28;20034;-87
2021/08/12 01:41:35;;;;;;;6.50;5.70;;;;;;;19.22;100.00;98403.81;5021095;28;20054;-87
2021/08/12 01:44:01;;;;;;;9.10;6.65;;;;;;;19.10;100.00;98381.56;5027371;28;20034;-86
2021/08/12 01:46:28;;;;;;;9.50;6.13;;;;;;;19.30;100.00;98393.75;5031063;28;20028;-87
2021/08/12 01:48:56;;;;;;;11.38;5.82;;;;;;;19.43;100.00;98403.78;5026883;28;20038;-84
2021/08/12 01:51:26;;;;;;;7.65;6.22;;;;;;;19.25;100.00;98392.84;5020646;28;20025;-87
2021/08/12 01:53:52;;;;;;;9.35;6.45;;;;;;;19.20;100.00;98400.56;5021436;28;20033;-88
2021/08/12 01:56:19;;;;;;;13.20;7.22;;;;;;;19.25;100.00;98401.16;5015089;28;20091;-88
2021/08/12 01:58:47;;;;;;;11.15;6.68;;;;;;;19.13;100.00;98395.56;5016603;28;20033;-89
2021/08/12 02:01:13;;;;;;;20.05;7.68;;;;;;;19.05;100.00;98404.75;5017984;28;20030;-87
2021/08/12 02:03:41;;;;;;;9.50;6.43;;;;;;;18.88;100.00;98393.84;5015652;28;20033;-88
2021/08/12 02:06:09;;;;;;;10.07;6.53;;;;;;;18.85;100.00;98399.25;5021824;28;20065;-87
2021/08/12 02:08:34;;;;;;;7.68;6.30;;;;;;;18.84;100.00;98400.38;5034262;28;20048;-89
2021/08/12 02:11:00;;;;;;;7.70;6.55;;;;;;;18.72;100.00;98401.13;5030266;28;20026;-89
2021/08/12 02:13:27;;;;;;;8.05;6.10;;;;;;;18.61;100.00;98397.13;5028133;28;20045;-88
2021/08/12 02:15:53;;;;;;;11.80;6.85;;;;;;;18.58;100.00;98411.66;5020081;28;20099;-87
2021/08/12 02:18:18;;;;;;;10.85;7.82;;;;;;;18.56;100.00;98405.66;5022993;28;20062;-88
2021/08/12 02:20:53;;;;;;;12.55;7.70;;;;;;;18.67;100.00;98412.41;5024675;28;20030;-87
2021/08/12 02:23:24;;;;;;;13.23;6.47;;;;;;;18.76;100.00;98409.59;5021484;28;20064;-87
2021/08/12 02:25:58;;;;;;;9.18;7.05;;;;;;;18.77;100.00;98408.41;5024794;28;20137;-88
2021/08/12 02:28:28;;;;;;;12.13;8.00;;;;;;;18.72;100.00;98401.13;5023142;28;20537;-88
2021/08/12 02:30:55;;;;;;;11.18;7.25;;;;;;;18.84;100.00;98409.50;5023635;28;20077;-87
2021/08/12 02:33:26;;;;;;;17.77;8.38;;;;;;;18.89;100.00;98406.53;5027871;28;20381;-85
2021/08/12 02:35:51;;;;;;;8.52;6.43;;;;;;;18.77;100.00;98398.16;5013033;28;20399;-88
2021/08/12 02:38:19;;;;;;;12.45;6.80;;;;;;;18.73;100.00;98396.41;5023348;28;20087;-87
2021/08/12 02:40:45;;;;;;;10.25;7.07;;;;;;;18.63;100.00;98406.75;5019371;28;20038;-87
2021/08/12 02:43:12;;;;;;;10.82;6.82;;;;;;;18.73;100.00;98407.50;5002635;28;20046;-88
2021/08/12 02:45:39;;;;;;;8.98;6.18;;;;;;;18.71;100.00;98405.03;5021577;28;20030;-86
2021/08/12 02:48:10;;;;;;;7.57;5.45;;;;;;;18.68;100.00;98395.44;5021117;28;20033;-87
2021/08/12 02:50:38;;;;;;;13.63;6.93;;;;;;;18.61;100.00;98395.16;5033861;28;20022;-82
2021/08/12 02:53:05;;;;;;;7.32;5.85;;;;;;;18.67;100.00;98404.09;5037300;28;20037;-87
2021/08/12 02:55:32;;;;;;;10.07;6.18;;;;;;;18.62;100.00;98398.75;5022811;28;20498;-87
2021/08/12 02:57:58;;;;;;;8.25;6.55;;;;;;;18.78;100.00;98402.56;5022618;28;20037;-86
2021/08/12 03:00:23;;;;;;;13.25;5.85;;;;;;;18.76;100.00;98404.84;5019373;28;20088;-87
2021/08/12 03:02:50;;;;;;;11.50;6.78;;;;;;;18.63;100.00;98392.06;5027152;28;20089;-87
2021/08/12 03:05:16;;;;;;;10.00;6.07;;;;;;;18.72;100.00;98403.91;5029599;28;20029;-87
2021/08/12 03:07:45;;;;;;;8.85;6.20;;;;;;;18.78;100.00;98405.31;5027395;28;20398;-87
2021/08/12 03:10:12;;;;;;;7.32;6.28;;;;;;;18.83;100.00;98405.09;5028592;28;20093;-87
2021/08/12 03:12:39;;;;;;;9.88;5.97;;;;;;;18.81;100.00;98415.72;5027974;28;20100;-88
2021/08/12 03:15:06;;;;;;;8.07;6.10;;;;;;;18.85;100.00;98416.69;5026540;28;20124;-88
2021/08/12 03:17:32;;;;;;;7.90;6.90;;;;;;;18.83;100.00;98405.09;5028337;28;20029;-87
2021/08/12 03:19:57;;;;;;;8.05;5.97;;;;;;;18.76;100.00;98407.63;5031012;28;20030;-85
2021/08/12 03:22:24;;;;;;;11.55;6.60;;;;;;;18.73;100.00;98415.81;5033041;28;20101;-87
2021/08/12 03:24:52;;;;;;;6.22;5.63;;;;;;;18.69;100.00;98430.34;5029910;28;20022;-89
2021/08/12 03:27:18;;;;;;;8.45;5.93;;;;;;;18.77;100.00;98420.31;5031336;28;20033;-87
2021/08/12 03:29:45;;;;;;;8.00;6.05;;;;;;;18.79;100.00;98428.31;5027625;28;20451;-88
2021/08/12 03:32:11;;;;;;;7.43;6.32;;;;;;;18.64;100.00;98421.38;5027340;28;20058;-88
2021/08/12 03:34:37;;;;;;;9.43;6.22;;;;;;;18.58;100.00;98418.00;5037908;28;20014;-84
2021/08/12 03:37:04;;;;;;;18.25;9.25;;;;;;;18.57;100.00;98410.06;5038155;28;20044;-82
2021/08/12 03:39:31;;;;;;;10.40;7.13;;;;;;;18.55;100.00;98412.31;5037788;28;20064;-83
2021/08/12 03:41:57;;;;;;;11.85;6.82;;;;;;;18.58;100.00;98431.88;5036936;28;20053;-84
2021/08/12 03:44:23;;;;;;;9.15;6.72;;;;;;;18.45;100.00;98407.16;5038190;28;20017;-84
2021/08/12 03:46:49;;;;;;;10.30;7.03;;;;;;;18.43;100.00;98417.75;5038111;28;20017;-83
2021/08/12 03:49:14;;;;;;;9.30;5.80;;;;;;;18.50;100.00;98431.94;5037843;28;20022;-83
2021/08/12 03:51:40;;;;;;;8.02;6.47;;;;;;;18.46;100.00;98408.78;5037969;28;20014;-81
2021/08/12 03:54:06;;;;;;;7.72;6.18;;;;;;;18.29;100.00;98414.44;5037690;28;20025;-82
2021/08/12 03:56:31;;;;;;;12.93;7.20;;;;;;;18.31;100.00;98412.13;5037803;28;20025;-80
2021/08/12 03:58:57;;;;;;;10.85;5.93;;;;;;;18.50;100.00;98418.06;5037367;28;20022;-84
2021/08/12 04:01:23;;;;;;;8.57;6.20;;;;;;;18.38;100.00;98421.53;5037476;28;20070;-83
2021/08/12 04:03:48;;;;;;;10.38;6.40;;;;;;;18.29;100.00;98431.88;5037474;28;20058;-85
2021/08/12 04:06:14;;;;;;;7.90;7.07;;;;;;;18.20;100.00;98426.34;5028842;28;20026;-87
2021/08/12 04:08:40;;;;;;;10.35;6.03;;;;;;;18.26;100.00;98423.41;5035717;28;20009;-86
2021/08/12 04:11:07;;;;;;;8.52;5.80;;;;;;;18.38;100.00;98418.78;5037704;28;20006;-82
2021/08/12 04:13:33;;;;;;;6.75;5.93;;;;;;;18.41;100.00;98420.06;5038641;28;20010;-83
2021/08/12 04:15:59;;;;;;;11.85;6.45;;;;;;;18.48;100.00;98439.75;5036093;28;20010;-87
2021/08/12 04:18:25;;;;;;;7.00;5.68;;;;;;;18.54;100.00;98441.19;5037426;28;20105;-83
2021/08/12 04:20:50;;;;;;;7.65;5.63;;;;;;;18.53;100.00;98445.09;5018255;28;20176;-75
2021/08/12 04:23:16;;;;;;;12.32;6.65;;;;;;;18.52;100.00;98451.78;5011102;28;20034;-77
2021/08/12 04:25:41;;;;;;;7.85;7.05;;;;;;;18.47;100.00;98455.56;5011366;28;20475;-82
2021/08/12 04:28:07;;;;;;;8.80;6.60;;;;;;;18.57;100.00;98457.97;5013268;28;20030;-78
2021/08/12 04:30:33;;;;;;;10.80;6.53;;;;;;;18.54;100.00;98443.97;5011664;28;20034;-79
2021/08/12 04:32:58;;;;;;;10.38;7.03;;;;;;;18.40;100.00;98454.44;5010425;28;20026;-79
2021/08/12 04:35:23;;;;;;;8.65;6.15;;;;;;;18.45;100.00;98445.97;5006664;28;20033;-80
2021/08/12 04:37:49;;;;;;;10.73;6.30;;;;;;;18.55;100.00;98451.94;5007592;28;20061;-78
2021/08/12 04:40:17;;;;;;;11.27;6.60;;;;;;;18.51;100.00;98450.97;5008386;28;20034;-79
2021/08/12 04:42:44;;;;;;;10.98;6.07;;;;;;;18.59;100.00;98446.53;5008230;28;20054;-83
2021/08/12 04:45:10;;;;;;;9.23;7.07;;;;;;;18.59;100.00;98447.34;5009468;28;20169;-79
2021/08/12 04:47:37;;;;;;;9.82;6.15;;;;;;;18.89;100.00;98447.31;5007664;28;20026;-80
2021/08/12 04:50:03;;;;;;;8.23;5.85;;;;;;;18.95;100.00;98437.66;4992130;28;20021;-80
2021/08/12 04:52:29;;;;;;;7.13;5.53;;;;;;;19.08;100.00;98444.88;5010434;28;20030;-84
2021/08/12 04:54:56;;;;;;;9.10;7.03;;;;;;;19.02;100.00;98440.69;5010154;28;20483;-79
2021/08/12 04:57:21;;;;;;;9.32;6.53;;;;;;;19.09;100.00;98438.19;5011170;28;20104;-82
2021/08/12 04:59:46;;;;;;;6.05;5.10;;;;;;;19.12;100.00;98431.94;5009889;28;20508;-83
2021/08/12 05:02:12;;;;;;;8.55;6.05;;;;;;;19.13;100.00;98450.22;5009324;28;20029;-79
2021/08/12 05:04:37;;;;;;;10.18;7.15;;;;;;;19.30;100.00;98458.38;5010654;28;20022;-81
2021/08/12 05:07:03;;;;;;;9.70;5.72;;;;;;;19.32;100.00;98464.44;5009090;28;20030;-78
2021/08/12 05:09:28;;;;;;;8.48;6.20;;;;;;;19.61;100.00;98461.56;5010800;28;20025;-82
2021/08/12 05:11:54;;;;;;;11.10;6.55;;;;;;;20.04;99.53;98469.44;5010890;28;20036;-80
2021/08/12 05:14:19;;;;;;;6.18;5.38;;;;;;;20.10;98.85;98468.06;5009313;28;20033;-81
2021/08/12 05:16:45;;;;;;;7.28;5.30;;;;;;;19.81;98.56;98468.22;5012023;28;20025;-81
2021/08/12 05:19:10;;;;;;;12.85;6.55;;;;;;;19.79;99.64;98456.66;5009697;28;20030;-80
2021/08/12 05:21:35;;;;;;;8.20;7.32;;;;;;;19.96;98.20;98467.53;5009171;28;20119;-81
2021/08/12 05:24:01;;;;;;;7.22;5.90;;;;;;;19.81;99.20;98462.66;5010061;28;20034;-81
2021/08/12 05:26:26;;;;;;;12.55;7.25;;;;;;;19.66;100.00;98469.69;5010812;28;20046;-84
2021/08/12 05:28:53;;;;;;;10.18;6.40;;;;;;;20.17;96.93;98473.03;5010774;28;20026;-79
2021/08/12 05:31:18;;;;;;;14.98;7.65;;;;;;;20.09;96.81;98469.19;5011075;28;20030;-78
2021/08/12 05:33:44;;;;;;;16.02;7.38;;;;;;;19.92;97.41;98474.16;5014925;28;20026;-79
2021/08/12 05:36:09;;;;;;;14.13;8.35;;;;;;;19.65;99.77;98472.78;5012537;28;20030;-78
2021/08/12 05:38:35;;;;;;;9.57;8.05;;;;;;;19.86;99.95;98459.66;5013882;28;20064;-81
2021/08/12 05:41:01;;;;;;;13.25;6.97;;;;;;;19.82;99.32;98472.63;5013975;28;20399;-78
2021/08/12 05:43:27;;;;;;;9.05;6.72;;;;;;;19.89;99.09;98470.06;5013275;28;20042;-82
2021/08/12 05:45:53;;;;;;;13.93;6.50;;;;;;;20.33;96.16;98475.97;5013196;28;20474;-80
2021/08/12 05:48:20;;;;;;;8.57;6.68;;;;;;;20.83;92.80;98470.88;5012825;28;20033;-76
2021/08/12 05:50:46;;;;;;;9.55;7.22;;;;;;;20.80;94.12;98477.09;5012413;28;20029;-76
2021/08/12 05:53:12;;;;;;;8.45;7.32;;;;;;;20.82;93.61;98472.03;5013866;28;20034;-80
2021/08/12 05:55:39;;;;;;;9.70;6.47;;;;;;;20.99;90.81;98474.53;5011763;28;20029;-78
2021/08/12 05:58:04;;;;;;;9.68;7.10;;;;;;;20.88;90.68;98473.41;5012919;28;20051;-77
2021/08/12 06:00:30;;;;;;;9.18;6.72;;;;;;;20.96;91.32;98461.31;5012066;28;20483;-78
2021/08/12 06:02:55;;;;;;;12.32;6.78;;;;;;;21.28;90.69;98477.03;5013395;28;20044;-84
2021/08/12 06:05:20;;;;;;;12.07;7.95;;;;;;;21.19;88.41;98470.81;5015536;28;20040;-85
2021/08/12 06:07:46;;;;;;;11.90;7.28;;;;;;;21.40;89.15;98478.97;5017532;28;20029;-81
2021/08/12 06:10:11;;;;;;;7.80;6.47;;;;;;;21.79;86.71;98483.69;5012311;28;20096;-86
2021/08/12 06:12:37;;;;;;;9.60;7.20;;;;;;;22.12;83.66;98480.63;5015860;28;20033;-83
2021/08/12 06:15:04;;;;;;;9.45;6.78;;;;;;;22.02;85.82;98486.72;5013849;28;20141;-83
2021/08/12 06:17:29;;;;;;;7.85;6.20;;;;;;;22.24;83.60;98483.31;5014269;28;20107;-85
2021/08/12 06:19:57;;;;;;;8.85;7.45;;;;;;;22.52;82.44;98488.00;5013261;28;20504;-83
2021/08/12 06:22:23;;;;;;;10.50;6.38;;;;;;;22.77;79.92;98492.25;5013929;28;20025;-77
2021/08/12 06:24:48;;;;;;;7.68;6.75;;;;;;;22.80;79.66;98488.75;5012324;28;20022;-79
2021/08/12 06:27:13;;;;;;;10.20;6.30;;;;;;;22.77;79.31;98495.81;5012591;28;20093;-80
2021/08/12 06:29:40;;;;;;;8.57;5.75;;;;;;;23.11;78.11;98483.09;5013146;28;20030;-80
2021/08/12 06:32:06;;;;;;;9.00;5.30;;;;;;;23.60;76.95;98493.72;5010115;28;20136;-79
2021/08/12 06:34:31;;;;;;;9.63;4.82;;;;;;;24.16;70.64;98506.03;5011622;28;20483;-78
2021/08/12 06:36:58;;;;;;;11.20;5.70;;;;;;;24.60;67.35;98502.81;5012028;28;21577;-78
2021/08/12 06:39:23;;;;;;;6.93;5.32;;;;;;;25.00;67.14;98503.09;5010929;28;20038;-78
2021/08/12 06:41:49;;;;;;;8.43;4.72;;;;;;;25.04;63.98;98495.56;5013058;28;20046;-79
2021/08/12 06:44:14;;;;;;;11.48;5.35;;;;;;;25.30;63.67;98495.53;5024830;28;20030;-79
2021/08/12 06:46:40;;;;;;;8.48;5.05;;;;;;;24.30;66.40;98495.13;5020365;28;20113;-79
2021/08/12 06:49:07;;;;;;;12.05;5.55;;;;;;;24.50;67.26;98505.06;5013242;28;20017;-78
2021/08/12 06:51:32;;;;;;;11.07;5.88;;;;;;;24.02;68.72;98505.75;5011876;28;20053;-79
2021/08/12 06:53:58;;;;;;;10.48;6.05;;;;;;;23.85;69.31;98507.03;5011244;28;20419;-78
2021/08/12 06:56:24;;;;;;;9.27;5.63;;;;;;;24.27;67.91;98501.47;5012930;28;20033;-78
2021/08/12 06:58:49;;;;;;;11.05;5.80;;;;;;;24.02;68.14;98505.75;5013045;28;20034;-78
2021/08/12 07:01:14;;;;;;;9.80;5.97;;;;;;;24.18;67.92;98514.06;5012258;28;20045;-82
2021/08/12 07:03:40;;;;;;;6.75;5.70;;;;;;;24.70;67.03;98525.38;5010792;28;20024;-81
2021/08/12 07:06:05;;;;;;;6.20;5.05;;;;;;;24.33;68.42;98518.75;5011900;28;20034;-82
2021/08/12 07:08:30;;;;;;;7.82;5.18;;;;;;;24.49;67.61;98516.63;5010533;28;20026;-80
2021/08/12 07:10:56;;;;;;;8.00;5.82;;;;;;;24.61;69.27;98510.03;5011740;28;20026;-82
2021/08/12 07:13:21;;;;;;;7.80;5.40;;;;;;;24.51;68.57;98517.88;5011720;28;20034;-79
2021/08/12 07:15:47;;;;;;;10.45;5.80;;;;;;;24.59;68.44;98515.22;5011929;28;20589;-79
2021/08/12 07:18:12;;;;;;;7.75;5.50;;;;;;;24.71;67.23;98515.81;5011882;28;20033;-81
2021/08/12 07:20:38;;;;;;;7.50;5.55;;;;;;;25.17;68.08;98513.75;5011857;28;20120;-81
2021/08/12 07:23:03;;;;;;;8.77;5.35;;;;;;;25.72;65.22;98520.53;5011709;28;20026;-81
2021/08/12 07:25:29;;;;;;;6.65;5.07;;;;;;;25.85;64.32;98512.69;5011886;28;20529;-79
2021/08/12 07:27:54;;;;;;;7.95;5.03;;;;;;;25.61;65.10;98518.78;5011888;28;20438;-79
2021/08/12 07:30:20;;;;;;;6.57;5.30;;;;;;;25.35;65.83;98522.41;5011777;28;20499;-80
2021/08/12 07:32:45;;;;;;;10.50;4.93;;;;;;;25.56;65.93;98509.53;5011968;28;20018;-78
2021/08/12 07:35:12;;;;;;;8.77;5.60;;;;;;;25.70;64.35;98513.69;5011505;28;20040;-79
2021/08/12 07:37:37;;;;;;;8.30;5.25;;;;;;;25.46;64.80;98518.59;5011069;28;20018;-78
2021/08/12 07:40:03;;;;;;;10.65;6.00;;;;;;;25.60;64.00;98519.97;5011523;28;20022;-80
2021/08/12 07:42:29;;;;;;;13.07;5.45;;;;;;;25.89;63.82;98514.34;5011557;28;20384;-80
2021/08/12 07:44:54;;;;;;;6.90;4.82;;;;;;;26.45;62.17;98514.16;5011404;28;20021;-80
2021/08/12 07:47:20;;;;;;;10.23;5.18;;;;;;;27.23;58.03;98509.19;5010004;28;20026;-81
2021/08/12 07:49:45;;;;;;;7.40;4.90;;;;;;;27.54;57.08;98519.84;5011636;28;20044;-79
2021/08/12 07:52:11;;;;;;;7.20;5.25;;;;;;;27.61;55.00;98525.50;5011331;28;20053;-79
2021/08/12 07:54:37;;;;;;;5.00;4.25;;;;;;;27.45;56.06;98513.78;5011434;28;20073;-77
2021/08/12 07:57:04;;;;;;;8.68;4.50;;;;;;;26.63;58.00;98520.75;5011068;28;20486;-80
2021/08/12 07:59:29;;;;;;;6.88;4.57;;;;;;;26.98;57.59;98514.66;5012553;28;20088;-85
2021/08/12 08:01:55;;;;;;;8.63;4.25;;;;;;;27.16;57.95;98513.97;5014504;28;20068;-85
2021/08/12 08:04:20;;;;;;;4.93;4.03;;;;;;;26.96;56.41;98516.25;5013599;28;20029;-84
2021/08/12 08:06:46;;;;;;;6.43;5.00;;;;;;;27.06;56.62;98519.13;5011008;28;20044;-85
2021/08/12 08:09:11;;;;;;;7.82;3.75;;;;;;;27.70;54.38;98513.88;5011887;28;20053;-85
2021/08/12 08:11:37;;;;;;;4.90;3.92;;;;;;;28.78;52.32;98516.63;5012766;28;20038;-86
2021/08/12 08:14:02;;;;;;;8.48;3.88;;;;;;;29.38;48.77;98520.22;5012708;28;20029;-83
2021/08/12 08:16:28;;;;;;;7.20;4.20;;;;;;;29.61;48.43;98514.09;5014446;28;20025;-84
2021/08/12 08:18:54;;;;;;;7.13;4.00;;;;;;;29.60;50.31;98515.31;5013164;28;20117;-84
2021/08/12 08:21:19;;;;;;;7.43;4.35;;;;;;;29.32;49.26;98515.41;5011774;28;20562;-85
2021/08/12 08:23:45;;;;;;;7.78;3.75;;;;;;;28.43;52.62;98514.56;5012264;28;20546;-84
2021/08/12 08:26:10;;;;;;;9.57;4.65;;;;;;;28.38;51.86;98512.13;5014805;28;20084;-85
2021/08/12 08:28:35;;;;;;;5.63;4.00;;;;;;;27.91;54.27;98507.56;5013635;28;20076;-85
2021/08/12 08:31:01;;;;;;;5.05;4.03;;;;;;;28.01;53.28;98504.78;5013163;28;20494;-87
2021/08/12 08:33:26;;;;;;;5.95;3.80;;;;;;;28.29;53.29;98509.69;5012871;28;20025;-85
2021/08/12 08:35:52;;;;;;;6.53;3.92;;;;;;;28.22;52.87;98509.69;5011523;28;20048;-85
2021/08/12 08:38:18;;;;;;;9.02;4.78;;;;;;;28.59;52.09;98510.16;5011502;28;20120;-86
2021/08/12 08:40:43;;;;;;;5.68;4.18;;;;;;;28.87;50.97;98503.75;5011029;28;20022;-84
2021/08/12 08:43:10;;;;;;;4.95;3.63;;;;;;;29.05;50.25;98506.53;5013297;28;20092;-82
2021/08/12 08:45:38;;;;;;;6.63;3.75;;;;;;;29.21;49.75;98512.56;5013034;28;20566;-85
2021/08/12 08:48:10;;;;;;;5.82;4.05;;;;;;;29.40;49.00;98509.31;5011933;28;20018;-84
2021/08/12 08:50:37;;;;;;;5.35;4.25;;;;;;;29.69;48.87;98504.41;5013943;28;20040;-84
2021/08/12 08:53:03;;;;;;;4.82;3.88;;;;;;;29.24;48.65;98508.97;5011542;28;20480;-82
2021/08/12 08:55:29;;;;;;;6.13;3.22;;;;;;;29.35;49.17;98508.94;5013208;28;20064;-85
2021/08/12 08:57:56;;;;;;;6.65;3.70;;;;;;;28.99;50.34;98502.53;5011552;28;20113;-86
2021/08/12 09:00:23;;;;;;;6.00;3.08;;;;;;;28.90;49.08;98505.75;5013331;28;20084;-84
2021/08/12 09:02:50;;;;;;;4.03;3.25;;;;;;;29.26;48.70;98509.34;5013590;28;20029;-88
2021/08/12 09:05:16;;;;;;;4.38;3.15;;;;;;;29.71;47.93;98510.44;5013999;28;20042;-87
2021/08/12 09:07:43;;;;;;;5.68;3.65;;;;;;;29.76;48.55;98507.97;5018146;28;20021;-84
2021/08/12 09:10:11;;;;;;;4.10;3.63;;;;;;;30.14;45.92;98513.88;5018119;28;20505;-85
2021/08/12 09:12:37;;;;;;;4.15;3.20;;;;;;;29.25;46.44;98504.13;5017636;28;20112;-85
2021/08/12 09:15:09;;;;;;;5.70;3.70;;;;;;;29.26;46.52;98505.75;5017718;28;20072;-85
2021/08/12 09:17:35;;;;;;;5.68;3.35;;;;;;;29.39;46.38;98501.25;5013461;28;20072;-85
2021/08/12 09:20:03;;;;;;;6.50;3.30;;;;;;;28.96;46.89;98497.69;5018309;28;20033;-87
2021/08/12 09:22:45;;;;;;;11.93;4.07;;;;;;;29.20;46.44;98497.66;5018399;28;20034;-87
2021/08/12 09:25:11;;;;;;;4.03;3.30;;;;;;;28.95;46.33;98491.25;5018119;28;20084;-84
2021/08/12 09:27:39;;;;;;;4.03;3.28;;;;;;;28.78;46.27;98485.63;5017519;28;20030;-86
2021/08/12 09:30:15;;;;;;;4.72;3.05;;;;;;;29.01;46.07;98488.81;5017634;28;20507;-88
2021/08/12 09:32:50;;;;;;;3.22;2.88;;;;;;;29.16;46.57;98494.03;5018776;28;20034;-86
2021/08/12 09:35:27;;;;;;;3.47;3.15;;;;;;;29.26;46.48;98486.00;5018581;28;20104;-86
2021/08/12 09:37:53;;;;;;;3.80;2.97;;;;;;;29.15;46.15;98488.81;5020189;28;20033;-84
2021/08/12 09:40:26;;;;;;;3.25;2.75;;;;;;;28.94;47.78;98480.41;5036082;28;20026;-85
2021/08/12 09:43:00;;;;;;;4.35;3.42;;;;;;;29.34;48.45;98485.59;5017001;28;20039;-86
2021/08/12 09:45:30;;;;;;;4.70;3.38;;;;;;;29.43;47.72;98477.50;5000186;28;20030;-86
2021/08/12 09:51:28;;;;;;;5.68;3.53;;;;;;;29.80;46.97;98474.13;5011909;28;20045;-86
2021/08/12 09:54:04;;;;;;;8.00;3.25;;;;;;;29.45;47.47;98466.59;5022424;28;20026;-86
2021/08/12 09:56:29;;;;;;;4.65;3.75;;;;;;;29.53;47.97;98465.38;5014553;28;20033;-87
2021/08/12 09:59:05;;;;;;;8.15;4.30;;;;;;;29.04;48.79;98459.84;5018702;28;20044;-85
2021/08/12 10:01:31;;;;;;;10.50;3.13;;;;;;;29.58;47.84;98461.31;5018773;28;20390;-85
2021/08/12 10:03:56;;;;;;;6.00;3.92;;;;;;;29.12;49.28;98459.44;5017968;28;20033;-86
2021/08/12 10:06:31;;;;;;;4.32;2.85;;;;;;;29.40;49.24;98455.75;5018552;28;20026;-85
2021/08/12 10:08:56;;;;;;;4.93;3.53;;;;;;;29.06;48.40;98457.44;5016437;28;20041;-85
2021/08/12 10:11:30;;;;;;;5.10;3.50;;;;;;;29.70;47.56;98453.19;5017048;28;20022;-86
2021/08/12 10:14:03;;;;;;;7.03;4.00;;;;;;;29.82;48.00;98453.97;4998353;28;20437;-85
2021/08/12 10:16:32;;;;;;;6.60;3.70;;;;;;;30.03;47.09;98448.22;5010412;28;20022;-84
2021/08/12 10:18:59;;;;;;;4.07;3.67;;;;;;;30.35;46.22;98446.00;5014987;28;20018;-83
2021/08/12 10:21:25;;;;;;;4.32;3.40;;;;;;;29.65;48.21;98448.00;5016102;28;20022;-85
2021/08/12 10:23:55;;;;;;;4.38;3.70;;;;;;;29.32;47.96;98440.06;5016060;28;20033;-83
2021/08/12 10:26:25;;;;;;;6.15;3.30;;;;;;;29.75;47.73;98447.16;5015556;28;20026;-85
2021/08/12 10:29:11;;;;;;;4.93;3.47;;;;;;;29.26;48.93;98444.50;5015393;28;20022;-83
2021/08/12 10:31:51;;;;;;;8.13;3.53;;;;;;;29.71;48.18;98439.91;5014561;28;20028;-85
2021/08/12 10:34:17;;;;;;;5.50;3.63;;;;;;;29.71;48.06;98420.97;5012970;28;20058;-84
2021/08/12 10:36:45;;;;;;;8.02;4.38;;;;;;;29.24;49.15;98435.66;5014549;28;20057;-84
2021/08/12 10:39:16;;;;;;;6.63;3.83;;;;;;;29.45;48.73;98435.56;5013818;28;20717;-84
2021/08/12 10:41:42;;;;;;;6.13;3.58;;;;;;;30.22;46.72;98422.28;5013201;28;20056;-83
2021/08/12 10:44:07;;;;;;;3.78;3.45;;;;;;;30.00;47.03;98418.81;5013350;28;20037;-83
2021/08/12 10:46:37;;;;;;;4.20;3.67;;;;;;;30.46;46.35;98423.34;5012168;28;20022;-83
2021/08/12 10:49:34;;;;;;;5.85;3.47;;;;;;;29.92;47.44;98420.06;5013823;28;20018;-86
2021/08/12 10:52:01;;;;;;;9.30;3.78;;;;;;;30.12;47.04;98411.88;5015297;28;20082;-83
2021/08/12 10:54:26;;;;;;;3.97;3.28;;;;;;;30.42;46.40;98412.06;5015122;28;20458;-82
2021/08/12 10:57:14;;;;;;;5.50;3.92;;;;;;;31.02;45.24;98407.91;5012650;28;20129;-81
2021/08/12 10:59:41;;;;;;;6.05;3.67;;;;;;;30.98;45.54;98407.16;5013188;28;20034;-81
2021/08/12 11:02:41;;;;;;;9.23;3.95;;;;;;;30.97;44.46;98408.38;5013094;28;20112;-81
2021/08/12 11:05:07;;;;;;;5.50;4.32;;;;;;;30.83;45.21;98409.28;5011931;28;20030;-81
2021/08/12 11:07:38;;;;;;;7.35;4.07;;;;;;;31.34;44.98;98408.34;5013659;28;20133;-80
2021/08/12 11:10:05;;;;;;;7.35;5.40;;;;;;;31.27;45.33;98402.75;5010404;28;20048;-78
2021/08/12 11:12:53;;;;;;;6.47;4.45;;;;;;;30.71;45.66;98398.50;5012240;28;20032;-82
2021/08/12 11:15:36;;;;;;;5.63;4.00;;;;;;;30.50;45.50;98393.84;5010795;28;20030;-78
2021/08/12 11:18:03;;;;;;;10.18;3.97;;;;;;;30.87;45.95;98395.09;5010525;28;20045;-80
2021/08/12 11:20:33;;;;;;;6.60;4.20;;;;;;;30.45;45.91;98397.09;5012481;28;20032;-82
2021/08/12 11:23:17;;;;;;;5.90;4.32;;;;;;;30.35;46.01;98389.53;5010408;28;20034;-81
2021/08/12 11:26:00;;;;;;;4.05;3.53;;;;;;;30.23;46.94;98390.81;5010984;28;20502;-80
2021/08/12 11:28:41;;;;;;;4.55;3.80;;;;;;;30.62;45.97;98389.72;5011020;28;20087;-79
2021/08/12 11:31:07;;;;;;;7.03;4.07;;;;;;;30.68;45.23;98388.84;5009166;28;20065;-79
2021/08/12 11:33:44;;;;;;;4.68;3.75;;;;;;;30.69;45.07;98387.63;5009024;28;20025;-80